Time;durP1;ratioP1;P1;durP2;ratioP2;P2;SDS_P1;SDS_P2;PMS_P1;PMS_P2;Temp;Humidity;BMP_temperature;BMP_pressure;BME280_temperature;BME280_humidity;BME280_pressure;Samples;Min_cycle;Max_cycle;Signal;HPM_P1;HPM_P2
2023/07/13 00:02:18;;;;;;;4.67;1.50;;;;;;;;;;5063604;28;20028;-60
2023/07/13 00:04:43;;;;;;;3.50;1.30;;;;;;;;;;5066712;28;20021;-60
2023/07/13 00:07:08;;;;;;;3.65;1.40;;;;;;;;;;5068553;28;20024;-59
2023/07/13 00:09:34;;;;;;;5.45;1.30;;;;;;;;;;5070230;28;20032;-60
2023/07/13 00:11:59;;;;;;;5.25;1.50;;;;;;;;;;5070336;28;20016;-59
2023/07/13 00:14:25;;;;;;;3.30;1.40;;;;;;;;;;5061974;28;20550;-59
2023/07/13 00:16:50;;;;;;;3.60;1.40;;;;;;;;;;5060912;28;20099;-58
2023/07/13 00:19:15;;;;;;;3.30;1.40;;;;;;;;;;5050536;28;20479;-59
2023/07/13 00:21:41;;;;;;;3.50;1.50;;;;;;;;;;5061498;28;20506;-59
2023/07/13 00:24:07;;;;;;;5.55;1.38;;;;;;;;;;5070814;28;20032;-60
2023/07/13 00:26:33;;;;;;;3.60;1.35;;;;;;;;;;5060944;28;20488;-60
2023/07/13 00:28:59;;;;;;;3.38;1.30;;;;;;;;;;5055336;28;20108;-60
2023/07/13 00:31:24;;;;;;;4.32;1.45;;;;;;;;;;5074017;28;20008;-60
2023/07/13 00:33:49;;;;;;;6.07;1.65;;;;;;;;;;5058622;28;20013;-59
2023/07/13 00:36:14;;;;;;;5.30;1.55;;;;;;;;;;5072169;28;20021;-60
2023/07/13 00:38:40;;;;;;;3.88;1.60;;;;;;;;;;5073780;28;20103;-60
2023/07/13 00:41:05;;;;;;;4.75;1.50;;;;;;;;;;5064114;28;20036;-60
2023/07/13 00:43:31;;;;;;;4.60;2.13;;;;;;;;;;5067065;28;20467;-60
2023/07/13 00:45:56;;;;;;;4.63;1.48;;;;;;;;;;5073761;28;20100;-60
2023/07/13 00:48:23;;;;;;;4.28;1.55;;;;;;;;;;5067198;28;20020;-60
2023/07/13 00:50:51;;;;;;;5.35;1.63;;;;;;;;;;5071159;28;20016;-59
2023/07/13 00:53:17;;;;;;;4.13;1.90;;;;;;;;;;5068733;28;20410;-60
2023/07/13 00:55:42;;;;;;;4.55;1.85;;;;;;;;;;5061380;28;20025;-59
2023/07/13 00:58:08;;;;;;;4.32;1.40;;;;;;;;;;5053797;28;20021;-59
2023/07/13 01:00:35;;;;;;;4.50;1.90;;;;;;;;;;5059900;28;20579;-59
2023/07/13 01:03:04;;;;;;;4.88;1.73;;;;;;;;;;5068803;28;20026;-60
2023/07/13 01:05:29;;;;;;;6.00;2.17;;;;;;;;;;5067697;28;20439;-61
2023/07/13 01:07:55;;;;;;;6.30;2.07;;;;;;;;;;5063999;28;20088;-60
2023/07/13 01:10:20;;;;;;;;;;;;;;;;;;5054331;28;20512;-60
2023/07/13 01:12:45;;;;;;;7.03;2.00;;;;;;;;;;5052962;28;20377;-62
2023/07/13 01:15:29;;;;;;;6.40;2.42;;;;;;;;;;5068821;28;20024;-59
2023/07/13 01:17:55;;;;;;;5.03;2.20;;;;;;;;;;5058936;28;20033;-60
2023/07/13 01:20:20;;;;;;;7.43;2.55;;;;;;;;;;5055832;28;20096;-60
2023/07/13 01:22:45;;;;;;;5.22;2.15;;;;;;;;;;5073001;28;20028;-59
2023/07/13 01:25:10;;;;;;;4.90;2.20;;;;;;;;;;5073632;28;20028;-61
2023/07/13 01:27:35;;;;;;;5.32;2.45;;;;;;;;;;5073506;28;20422;-61
2023/07/13 01:30:03;;;;;;;6.45;2.35;;;;;;;;;;5071913;28;20063;-60
2023/07/13 01:32:31;;;;;;;6.93;2.30;;;;;;;;;;5072858;28;20021;-57
2023/07/13 01:34:56;;;;;;;5.35;2.17;;;;;;;;;;5067504;28;20055;-61
2023/07/13 01:37:22;;;;;;;4.00;2.00;;;;;;;;;;5069363;28;20016;-60
2023/07/13 01:39:47;;;;;;;7.15;2.38;;;;;;;;;;5073665;28;20028;-60
2023/07/13 01:42:13;;;;;;;5.78;2.33;;;;;;;;;;5073176;28;20020;-60
2023/07/13 01:44:38;;;;;;;5.20;2.10;;;;;;;;;;5072896;28;20067;-60
2023/07/13 01:47:03;;;;;;;5.97;2.25;;;;;;;;;;5073295;28;20027;-60
2023/07/13 01:49:28;;;;;;;5.35;2.70;;;;;;;;;;5073288;28;20480;-59
2023/07/13 01:51:54;;;;;;;5.82;2.40;;;;;;;;;;5071425;28;20044;-59
2023/07/13 01:54:19;;;;;;;5.50;2.23;;;;;;;;;;5072223;28;20036;-60
2023/07/13 01:56:44;;;;;;;5.90;2.50;;;;;;;;;;5072986;28;20113;-58
2023/07/13 01:59:09;;;;;;;5.32;2.40;;;;;;;;;;5072819;28;20020;-59
2023/07/13 02:01:35;;;;;;;4.85;2.45;;;;;;;;;;5072971;28;20039;-59
2023/07/13 02:04:00;;;;;;;5.28;2.50;;;;;;;;;;5072202;28;20029;-58
2023/07/13 02:06:25;;;;;;;7.63;2.42;;;;;;;;;;5055322;28;20442;-59
2023/07/13 02:08:50;;;;;;;5.70;2.70;;;;;;;;;;5062389;28;20083;-61
2023/07/13 02:11:15;;;;;;;5.57;2.27;;;;;;;;;;5070972;28;20036;-60
2023/07/13 02:13:40;;;;;;;6.13;2.63;;;;;;;;;;5071875;28;20096;-60
2023/07/13 02:16:06;;;;;;;5.17;2.27;;;;;;;;;;5060899;28;20024;-59
2023/07/13 02:18:31;;;;;;;4.30;2.25;;;;;;;;;;5052283;28;20047;-59
2023/07/13 02:20:56;;;;;;;5.73;2.27;;;;;;;;;;5052272;28;20102;-60
2023/07/13 02:23:21;;;;;;;5.47;2.47;;;;;;;;;;5051739;28;20090;-59
2023/07/13 02:25:47;;;;;;;5.07;2.20;;;;;;;;;;5070440;28;20508;-58
2023/07/13 02:28:12;;;;;;;5.85;2.85;;;;;;;;;;5064924;28;20032;-60
2023/07/13 02:30:38;;;;;;;6.93;2.80;;;;;;;;;;5055943;28;20535;-60
2023/07/13 02:33:03;;;;;;;4.57;2.35;;;;;;;;;;5051471;28;20128;-60
2023/07/13 02:35:28;;;;;;;7.13;2.40;;;;;;;;;;5051880;28;20032;-58
2023/07/13 02:37:53;;;;;;;5.28;2.47;;;;;;;;;;5068863;28;20473;-61
2023/07/13 02:40:19;;;;;;;5.73;2.77;;;;;;;;;;5071028;28;20027;-59
2023/07/13 02:42:44;;;;;;;6.80;2.80;;;;;;;;;;5070599;28;20040;-60
2023/07/13 02:45:09;;;;;;;6.80;2.80;;;;;;;;;;5071719;28;20019;-59
2023/07/13 02:47:34;;;;;;;7.30;2.70;;;;;;;;;;5072004;28;20380;-60
2023/07/13 02:49:59;;;;;;;6.45;2.75;;;;;;;;;;5072086;28;20021;-59
2023/07/13 02:52:25;;;;;;;7.10;3.28;;;;;;;;;;5071047;28;20013;-60
2023/07/13 02:54:50;;;;;;;5.40;2.63;;;;;;;;;;5071662;28;20066;-61
2023/07/13 02:57:15;;;;;;;6.33;3.20;;;;;;;;;;5069904;28;20012;-61
2023/07/13 02:59:40;;;;;;;5.82;3.08;;;;;;;;;;5071668;28;20012;-61
2023/07/13 03:02:05;;;;;;;7.35;2.72;;;;;;;;;;5071122;28;20096;-59
2023/07/13 03:04:30;;;;;;;6.95;2.80;;;;;;;;;;5071425;28;20032;-60
2023/07/13 03:06:57;;;;;;;7.53;2.63;;;;;;;;;;5071771;28;20069;-59
2023/07/13 03:09:23;;;;;;;7.35;3.70;;;;;;;;;;5072597;28;20020;-61
2023/07/13 03:11:48;;;;;;;9.95;3.70;;;;;;;;;;5073677;28;20067;-60
2023/07/13 03:14:13;;;;;;;6.38;2.75;;;;;;;;;;5066410;28;20024;-59
2023/07/13 03:16:38;;;;;;;5.40;2.70;;;;;;;;;;5073051;28;20123;-59
2023/07/13 03:19:03;;;;;;;5.47;2.77;;;;;;;;;;5053060;28;20504;-59
2023/07/13 03:21:29;;;;;;;7.50;3.40;;;;;;;;;;5056930;28;20021;-59
2023/07/13 03:23:54;;;;;;;7.60;3.50;;;;;;;;;;5050734;28;20017;-59
2023/07/13 03:26:19;;;;;;;8.25;3.30;;;;;;;;;;5051423;28;20053;-61
2023/07/13 03:28:45;;;;;;;6.07;3.03;;;;;;;;;;5054876;28;20116;-59
2023/07/13 03:31:14;;;;;;;5.27;2.83;;;;;;;;;;5066990;28;20368;-60
2023/07/13 03:33:40;;;;;;;7.93;2.95;;;;;;;;;;5065483;28;21013;-60
2023/07/13 03:36:06;;;;;;;10.23;3.20;;;;;;;;;;5062410;28;20039;-59
2023/07/13 03:38:31;;;;;;;;;;;;;;;;;;5052776;28;20025;-59
2023/07/13 03:40:56;;;;;;;6.90;2.85;;;;;;;;;;5055874;28;19914;-59
2023/07/13 03:43:21;;;;;;;5.80;2.70;;;;;;;;;;5050411;28;20021;-59
2023/07/13 03:45:47;;;;;;;5.60;3.40;;;;;;;;;;5050728;28;20431;-58
2023/07/13 03:48:12;;;;;;;5.47;2.55;;;;;;;;;;5065733;28;20016;-60
2023/07/13 03:50:38;;;;;;;6.75;3.05;;;;;;;;;;5070804;28;20032;-60
2023/07/13 03:53:03;;;;;;;5.72;2.85;;;;;;;;;;5070152;28;20568;-61
2023/07/13 03:55:28;;;;;;;6.15;2.67;;;;;;;;;;5070442;28;20036;-59
2023/07/13 03:57:57;;;;;;;5.85;3.03;;;;;;;;;;5070259;28;20082;-59
2023/07/13 04:00:22;;;;;;;8.23;3.40;;;;;;;;;;5071135;28;20027;-59
2023/07/13 04:02:49;;;;;;;6.37;2.70;;;;;;;;;;5068270;28;20033;-58
2023/07/13 04:05:14;;;;;;;5.65;2.45;;;;;;;;;;5070345;28;20028;-60
2023/07/13 04:07:39;;;;;;;7.60;3.45;;;;;;;;;;5066694;28;20021;-61
2023/07/13 04:10:05;;;;;;;7.45;3.20;;;;;;;;;;5068629;28;20428;-61
2023/07/13 04:12:30;;;;;;;5.05;2.90;;;;;;;;;;5055848;28;20420;-61
2023/07/13 04:14:55;;;;;;;5.85;2.95;;;;;;;;;;5050320;28;20025;-59
2023/07/13 04:17:20;;;;;;;7.55;2.97;;;;;;;;;;5058281;28;20028;-62
2023/07/13 04:19:45;;;;;;;7.18;2.75;;;;;;;;;;5070274;28;20055;-61
2023/07/13 04:22:10;;;;;;;9.13;3.03;;;;;;;;;;5064766;28;20435;-61
2023/07/13 04:24:36;;;;;;;6.07;2.95;;;;;;;;;;5049388;28;20420;-61
2023/07/13 04:27:02;;;;;;;5.18;2.42;;;;;;;;;;5050444;28;20013;-62
2023/07/13 04:29:28;;;;;;;7.95;3.00;;;;;;;;;;5068289;28;20059;-61
2023/07/13 04:31:53;;;;;;;5.80;3.00;;;;;;;;;;5070931;28;20044;-59
2023/07/13 04:34:18;;;;;;;5.45;2.38;;;;;;;;;;5068574;28;20029;-60
2023/07/13 04:36:43;;;;;;;4.37;2.17;;;;;;;;;;5070124;28;20529;-62
2023/07/13 04:39:08;;;;;;;6.03;2.40;;;;;;;;;;5068179;28;20059;-60
2023/07/13 04:41:33;;;;;;;6.60;2.90;;;;;;;;;;5070066;28;20396;-60
2023/07/13 04:43:59;;;;;;;5.28;2.33;;;;;;;;;;5062483;28;20201;-62
2023/07/13 04:46:24;;;;;;;6.53;2.47;;;;;;;;;;5072378;28;20058;-59
2023/07/13 04:48:50;;;;;;;4.63;2.50;;;;;;;;;;5076593;28;20025;-61
2023/07/13 04:51:16;;;;;;;6.45;3.17;;;;;;;;;;5056001;28;20132;-61
2023/07/13 04:53:41;;;;;;;6.80;2.80;;;;;;;;;;5062933;28;20727;-62
2023/07/13 04:56:06;;;;;;;5.83;2.50;;;;;;;;;;5069608;28;20029;-60
2023/07/13 04:58:33;;;;;;;6.37;2.80;;;;;;;;;;5056362;28;20104;-63
2023/07/13 05:01:02;;;;;;;5.43;2.80;;;;;;;;;;5055720;28;20145;-62
2023/07/13 05:03:27;;;;;;;4.90;2.60;;;;;;;;;;5053199;28;20087;-63
2023/07/13 05:05:59;;;;;;;4.78;2.47;;;;;;;;;;5058959;28;20033;-61
2023/07/13 05:08:25;;;;;;;4.70;2.45;;;;;;;;;;5061735;28;20022;-63
2023/07/13 05:10:51;;;;;;;8.25;3.10;;;;;;;;;;5055696;28;20035;-62
2023/07/13 05:13:16;;;;;;;6.07;2.80;;;;;;;;;;5068349;28;20027;-62
2023/07/13 05:15:41;;;;;;;5.78;2.40;;;;;;;;;;5070148;28;20852;-62
2023/07/13 05:18:06;;;;;;;6.20;2.75;;;;;;;;;;5058217;28;20025;-60
2023/07/13 05:20:31;;;;;;;5.72;2.95;;;;;;;;;;5052883;28;20060;-61
2023/07/13 05:22:57;;;;;;;5.73;3.10;;;;;;;;;;5064738;28;20500;-61
2023/07/13 05:25:22;;;;;;;6.35;2.47;;;;;;;;;;5057853;28;20476;-61
2023/07/13 05:27:48;;;;;;;6.43;2.70;;;;;;;;;;5060610;28;20518;-61
2023/07/13 05:30:13;;;;;;;10.23;3.17;;;;;;;;;;5063208;28;20024;-61
2023/07/13 05:32:38;;;;;;;7.80;3.88;;;;;;;;;;5055792;28;20414;-61
2023/07/13 05:35:04;;;;;;;8.60;3.20;;;;;;;;;;5061538;28;20036;-61
2023/07/13 05:37:29;;;;;;;6.07;2.90;;;;;;;;;;5062108;28;20524;-60
2023/07/13 05:39:54;;;;;;;5.35;2.95;;;;;;;;;;5062059;28;20063;-62
2023/07/13 05:42:19;;;;;;;6.73;2.80;;;;;;;;;;5066362;28;20086;-60
2023/07/13 05:44:44;;;;;;;9.88;3.25;;;;;;;;;;5061987;28;20020;-62
2023/07/13 05:47:10;;;;;;;6.22;2.80;;;;;;;;;;5057312;28;20041;-61
2023/07/13 05:49:35;;;;;;;5.30;2.80;;;;;;;;;;5059673;28;20035;-62
2023/07/13 05:52:00;;;;;;;5.75;2.88;;;;;;;;;;5063451;28;20505;-62
2023/07/13 05:54:25;;;;;;;5.75;2.50;;;;;;;;;;5061309;28;20063;-60
2023/07/13 05:56:50;;;;;;;5.57;2.80;;;;;;;;;;5061111;28;20472;-62
2023/07/13 05:59:17;;;;;;;7.10;2.63;;;;;;;;;;5065483;28;20104;-62
2023/07/13 06:01:42;;;;;;;;;;;;;;;;;;5069215;28;20497;-61
2023/07/13 06:04:07;;;;;;;7.40;2.80;;;;;;;;;;5060483;28;20303;-62
2023/07/13 06:06:32;;;;;;;6.53;2.90;;;;;;;;;;5069575;28;20096;-63
2023/07/13 06:08:57;;;;;;;6.55;2.90;;;;;;;;;;5072799;28;20468;-60
2023/07/13 06:11:24;;;;;;;6.10;2.43;;;;;;;;;;5072454;28;20017;-61
2023/07/13 06:13:49;;;;;;;7.05;2.90;;;;;;;;;;5072103;28;20024;-61
2023/07/13 06:16:15;;;;;;;8.13;3.13;;;;;;;;;;5072453;28;20082;-61
2023/07/13 06:18:40;;;;;;;5.15;2.80;;;;;;;;;;5070853;28;20416;-61
2023/07/13 06:21:16;;;;;;;8.77;3.53;;;;;;;;;;5068561;28;20476;-61
2023/07/13 06:23:41;;;;;;;9.23;3.80;;;;;;;;;;5051573;28;20398;-61
2023/07/13 06:26:07;;;;;;;9.07;3.22;;;;;;;;;;5057089;28;20032;-61
2023/07/13 06:28:32;;;;;;;5.38;2.72;;;;;;;;;;5066368;28;20028;-61
2023/07/13 06:30:58;;;;;;;7.97;2.85;;;;;;;;;;5068042;28;20111;-61
2023/07/13 06:33:23;;;;;;;6.82;2.80;;;;;;;;;;5066919;28;20193;-61
2023/07/13 06:35:48;;;;;;;6.60;2.50;;;;;;;;;;5071994;28;20029;-60
2023/07/13 06:38:14;;;;;;;6.40;2.50;;;;;;;;;;5069147;28;20124;-61
2023/07/13 06:40:39;;;;;;;6.50;2.20;;;;;;;;;;5069448;28;20020;-62
2023/07/13 06:43:04;;;;;;;5.77;2.60;;;;;;;;;;5066938;28;20421;-61
2023/07/13 06:45:29;;;;;;;6.05;2.25;;;;;;;;;;5056820;28;20036;-58
2023/07/13 06:47:54;;;;;;;11.00;2.40;;;;;;;;;;5052344;28;20043;-60
2023/07/13 06:50:20;;;;;;;4.63;2.10;;;;;;;;;;5051916;28;20027;-62
2023/07/13 06:52:45;;;;;;;5.43;2.22;;;;;;;;;;5059299;28;20024;-62
2023/07/13 06:55:10;;;;;;;;;;;;;;;;;;5069788;28;20449;-61
2023/07/13 06:57:35;;;;;;;6.90;1.92;;;;;;;;;;5065953;28;19909;-61
2023/07/13 07:00:00;;;;;;;5.03;2.00;;;;;;;;;;5071622;28;20513;-62
2023/07/13 07:02:26;;;;;;;6.85;2.00;;;;;;;;;;5067236;28;20052;-62
2023/07/13 07:04:51;;;;;;;;;;;;;;;;;;5058435;28;20032;-61
2023/07/13 07:07:16;;;;;;;6.93;2.28;;;;;;;;;;5051107;28;19909;-60
2023/07/13 07:09:41;;;;;;;6.53;2.10;;;;;;;;;;5052527;28;20460;-62
2023/07/13 07:12:06;;;;;;;6.53;2.03;;;;;;;;;;5051679;28;20044;-61
2023/07/13 07:14:32;;;;;;;4.68;1.83;;;;;;;;;;5070810;28;20029;-61
2023/07/13 07:16:58;;;;;;;6.05;2.15;;;;;;;;;;5071286;28;20537;-61
2023/07/13 07:19:23;;;;;;;5.50;1.83;;;;;;;;;;5071292;28;20013;-59
2023/07/13 07:21:48;;;;;;;4.90;1.67;;;;;;;;;;5070934;28;20491;-61
2023/07/13 07:24:15;;;;;;;;;;;;;;;;;;5071497;28;20028;-60
2023/07/13 07:26:40;;;;;;;4.50;1.80;;;;;;;;;;5070283;28;19917;-61
2023/07/13 07:29:05;;;;;;;8.70;2.20;;;;;;;;;;5065680;28;20016;-58
2023/07/13 07:31:30;;;;;;;4.43;1.70;;;;;;;;;;5066644;28;20056;-59
2023/07/13 07:33:56;;;;;;;5.03;1.73;;;;;;;;;;5069972;28;20042;-61
2023/07/13 07:36:21;;;;;;;4.95;1.88;;;;;;;;;;5070539;28;20070;-58
2023/07/13 07:38:46;;;;;;;5.93;1.75;;;;;;;;;;5071099;28;20370;-59
2023/07/13 07:41:11;;;;;;;7.53;2.00;;;;;;;;;;5071125;28;20016;-59
2023/07/13 07:43:36;;;;;;;3.90;1.52;;;;;;;;;;5070997;28;20063;-60
2023/07/13 07:46:02;;;;;;;7.53;1.90;;;;;;;;;;5062989;28;20503;-59
2023/07/13 07:48:27;;;;;;;4.38;1.65;;;;;;;;;;5067049;28;21044;-59
2023/07/13 07:50:52;;;;;;;;;;;;;;;;;;5074089;28;20055;-59
2023/07/13 07:53:17;;;;;;;4.50;1.50;;;;;;;;;;5072386;28;20360;-59
2023/07/13 07:55:43;;;;;;;5.27;1.80;;;;;;;;;;5071269;28;20016;-61
2023/07/13 07:58:08;;;;;;;4.65;1.63;;;;;;;;;;5070761;28;20052;-61
2023/07/13 08:00:35;;;;;;;6.45;1.58;;;;;;;;;;5070781;28;20027;-59
2023/07/13 08:03:00;;;;;;;4.88;1.40;;;;;;;;;;5065108;28;20021;-60
2023/07/13 08:05:25;;;;;;;4.97;1.40;;;;;;;;;;5062150;28;20039;-62
2023/07/13 08:07:51;;;;;;;;;;;;;;;;;;5071316;28;20027;-60
2023/07/13 08:10:16;;;;;;;6.75;1.73;;;;;;;;;;5070799;28;19999;-60
2023/07/13 08:12:41;;;;;;;;;;;;;;;;;;5070919;28;20029;-60
2023/07/13 08:15:09;;;;;;;5.93;1.40;;;;;;;;;;5070579;28;19954;-61
2023/07/13 08:17:34;;;;;;;5.43;1.60;;;;;;;;;;5060301;28;20029;-60
2023/07/13 08:20:00;;;;;;;4.47;1.30;;;;;;;;;;5063729;28;20388;-60
2023/07/13 08:22:25;;;;;;;4.07;1.50;;;;;;;;;;5065519;28;20020;-61
2023/07/13 08:24:55;;;;;;;5.03;1.75;;;;;;;;;;5070560;28;20028;-60
2023/07/13 08:27:21;;;;;;;4.80;1.42;;;;;;;;;;5062613;28;20051;-60
2023/07/13 08:29:47;;;;;;;3.97;1.30;;;;;;;;;;5065487;28;20441;-60
2023/07/13 08:32:12;;;;;;;;;;;;;;;;;;5069448;28;20095;-58
2023/07/13 08:34:37;;;;;;;4.37;1.30;;;;;;;;;;5070200;28;19952;-60
2023/07/13 08:37:02;;;;;;;3.80;1.20;;;;;;;;;;5068401;28;20103;-60
2023/07/13 08:39:28;;;;;;;3.80;1.50;;;;;;;;;;5050466;28;20440;-60
2023/07/13 08:41:57;;;;;;;4.53;1.50;;;;;;;;;;5050442;28;20776;-58
2023/07/13 08:44:27;;;;;;;5.85;1.70;;;;;;;;;;5059086;28;20112;-58
2023/07/13 08:46:53;;;;;;;4.38;1.30;;;;;;;;;;5073970;28;20422;-60
2023/07/13 08:49:22;;;;;;;4.13;1.50;;;;;;;;;;5074153;28;20029;-60
2023/07/13 08:51:50;;;;;;;5.18;1.48;;;;;;;;;;5074312;28;20404;-60
2023/07/13 08:54:26;;;;;;;5.72;1.40;;;;;;;;;;5073980;28;20059;-59
2023/07/13 08:56:52;;;;;;;4.45;1.20;;;;;;;;;;5073880;28;20025;-60
2023/07/13 08:59:19;;;;;;;3.72;1.52;;;;;;;;;;5073921;28;20372;-61
2023/07/13 09:01:54;;;;;;;4.13;1.20;;;;;;;;;;5069712;28;20028;-60
2023/07/13 09:04:22;;;;;;;6.85;1.83;;;;;;;;;;5073584;28;20368;-61
2023/07/13 09:06:53;;;;;;;5.85;1.50;;;;;;;;;;5073590;28;20029;-59
2023/07/13 09:09:37;;;;;;;6.05;1.58;;;;;;;;;;5073602;28;20032;-61
2023/07/13 09:12:09;;;;;;;5.10;1.80;;;;;;;;;;5073638;28;20166;-59
2023/07/13 09:14:37;;;;;;;5.13;1.38;;;;;;;;;;5070348;28;20032;-59
2023/07/13 09:17:10;;;;;;;5.30;1.60;;;;;;;;;;5073150;28;20479;-58
2023/07/13 09:19:35;;;;;;;6.03;1.58;;;;;;;;;;5073457;28;20028;-59
2023/07/13 09:22:02;;;;;;;3.65;1.48;;;;;;;;;;5072173;28;20107;-59
2023/07/13 09:24:29;;;;;;;3.53;1.25;;;;;;;;;;5072655;28;20116;-58
2023/07/13 09:26:55;;;;;;;3.95;1.40;;;;;;;;;;5073311;28;20028;-59
2023/07/13 09:29:26;;;;;;;4.85;1.35;;;;;;;;;;5073282;28;20430;-60
2023/07/13 09:31:53;;;;;;;5.25;1.35;;;;;;;;;;5062169;28;20024;-60
2023/07/13 09:34:18;;;;;;;4.15;1.30;;;;;;;;;;5069049;28;20030;-61
2023/07/13 09:36:44;;;;;;;5.47;1.38;;;;;;;;;;5057947;28;20017;-59
2023/07/13 09:39:18;;;;;;;6.22;1.52;;;;;;;;;;5065086;28;20074;-60
2023/07/13 09:41:50;;;;;;;5.03;1.75;;;;;;;;;;5065631;28;20021;-59
2023/07/13 09:44:17;;;;;;;4.22;1.45;;;;;;;;;;5072653;28;20019;-61
2023/07/13 09:46:46;;;;;;;4.75;1.67;;;;;;;;;;5073238;28;20028;-59
2023/07/13 09:49:12;;;;;;;4.35;1.50;;;;;;;;;;5072991;28;20029;-60
2023/07/13 09:51:38;;;;;;;4.40;1.43;;;;;;;;;;5073050;28;20044;-58
2023/07/13 09:54:04;;;;;;;4.07;1.52;;;;;;;;;;5071859;28;20028;-59
2023/07/13 09:56:29;;;;;;;4.53;1.60;;;;;;;;;;5067463;28;20350;-60
2023/07/13 09:58:54;;;;;;;;;;;;;;;;;;5065462;28;20017;-60
2023/07/13 10:01:38;;;;;;;3.22;1.20;;;;;;;;;;5065684;28;19908;-60
2023/07/13 10:04:13;;;;;;;4.45;1.30;;;;;;;;;;5065824;28;20020;-59
2023/07/13 10:06:39;;;;;;;6.80;1.48;;;;;;;;;;5054024;28;20028;-60
2023/07/13 10:09:07;;;;;;;7.70;1.48;;;;;;;;;;5053908;28;20074;-60
2023/07/13 10:11:34;;;;;;;4.38;1.20;;;;;;;;;;5052733;28;20488;-58
2023/07/13 10:14:02;;;;;;;4.57;1.25;;;;;;;;;;5051798;28;20049;-59
2023/07/13 10:16:32;;;;;;;6.78;1.50;;;;;;;;;;5065485;28;20028;-59
2023/07/13 10:19:00;;;;;;;5.03;1.60;;;;;;;;;;5064558;28;20171;-60
2023/07/13 10:21:38;;;;;;;3.97;1.20;;;;;;;;;;5072368;28;20024;-61
2023/07/13 10:24:10;;;;;;;4.55;1.45;;;;;;;;;;5071916;28;20038;-59
2023/07/13 10:26:45;;;;;;;5.57;1.35;;;;;;;;;;5072328;28;20027;-59
2023/07/13 10:29:12;;;;;;;4.45;1.50;;;;;;;;;;5070593;28;20024;-60
2023/07/13 10:31:38;;;;;;;5.15;1.60;;;;;;;;;;5071987;28;20028;-61
2023/07/13 10:34:05;;;;;;;;;;;;;;;;;;5072453;28;20039;-61
2023/07/13 10:36:33;;;;;;;3.47;1.30;;;;;;;;;;5072247;28;19914;-60
2023/07/13 10:39:00;;;;;;;5.32;1.60;;;;;;;;;;5072217;28;20020;-59
2023/07/13 10:41:26;;;;;;;5.07;1.45;;;;;;;;;;5072079;28;20024;-60
2023/07/13 10:43:51;;;;;;;;;;;;;;;;;;5071898;28;20103;-60
2023/07/13 10:46:17;;;;;;;4.53;1.45;;;;;;;;;;5064204;28;19996;-60
2023/07/13 10:48:44;;;;;;;3.40;1.20;;;;;;;;;;5069940;28;20016;-59
2023/07/13 10:51:10;;;;;;;3.78;1.60;;;;;;;;;;5071919;28;20443;-60
2023/07/13 10:53:37;;;;;;;3.88;1.30;;;;;;;;;;5071150;28;20042;-60
2023/07/13 10:56:11;;;;;;;3.78;1.40;;;;;;;;;;5071594;28;20020;-60
2023/07/13 10:58:37;;;;;;;4.88;1.30;;;;;;;;;;5071532;28;20111;-59
2023/07/13 11:01:03;;;;;;;4.68;1.50;;;;;;;;;;5070204;28;20016;-60
2023/07/13 11:03:28;;;;;;;;;;;;;;;;;;5071817;28;20384;-60
2023/07/13 11:06:05;;;;;;;3.65;1.10;;;;;;;;;;5071650;28;19904;-60
2023/07/13 11:08:30;;;;;;;3.67;1.23;;;;;;;;;;5071454;28;20024;-61
2023/07/13 11:10:55;;;;;;;;;;;;;;;;;;5070090;28;20070;-59
2023/07/13 11:13:37;;;;;;;5.37;1.20;;;;;;;;;;5069523;28;20360;-59
2023/07/13 11:16:23;;;;;;;5.63;1.30;;;;;;;;;;5071336;28;20028;-59
2023/07/13 11:18:49;;;;;;;4.22;1.13;;;;;;;;;;5062061;28;20189;-59
2023/07/13 11:21:14;;;;;;;4.32;1.13;;;;;;;;;;5071584;28;20013;-59
2023/07/13 11:23:42;;;;;;;3.40;1.08;;;;;;;;;;5071351;28;20020;-58
2023/07/13 11:26:27;;;;;;;4.05;1.30;;;;;;;;;;5071437;28;20021;-60
2023/07/13 11:28:52;;;;;;;4.05;1.25;;;;;;;;;;5071093;28;20028;-60
2023/07/13 11:31:19;;;;;;;;;;;;;;;;;;5071896;28;20021;-60
2023/07/13 11:33:50;;;;;;;7.22;1.08;;;;;;;;;;5067140;28;19909;-59
2023/07/13 11:36:16;;;;;;;4.40;1.40;;;;;;;;;;5066204;28;20019;-59
2023/07/13 11:38:43;;;;;;;3.88;1.20;;;;;;;;;;5070892;28;20495;-60
2023/07/13 11:41:22;;;;;;;4.07;1.27;;;;;;;;;;5071109;28;20035;-59
2023/07/13 11:43:53;;;;;;;5.57;1.33;;;;;;;;;;5068649;28;20017;-61
2023/07/13 11:46:21;;;;;;;5.25;1.42;;;;;;;;;;5070934;28;20054;-59
2023/07/13 11:48:50;;;;;;;5.45;1.30;;;;;;;;;;5062879;28;20037;-60
2023/07/13 11:51:23;;;;;;;4.90;1.20;;;;;;;;;;5070621;28;20476;-60
2023/07/13 11:53:49;;;;;;;5.40;1.77;;;;;;;;;;5070090;28;20403;-60
2023/07/13 11:56:15;;;;;;;4.18;1.20;;;;;;;;;;5070748;28;20454;-61
2023/07/13 11:58:40;;;;;;;;;;;;;;;;;;5069407;28;20111;-61
2023/07/13 12:01:05;;;;;;;5.82;1.50;;;;;;;;;;5070664;28;19905;-61
2023/07/13 12:03:30;;;;;;;;;;;;;;;;;;5069437;28;20028;-61
2023/07/13 12:05:57;;;;;;;5.70;1.42;;;;;;;;;;5069242;28;20287;-61
2023/07/13 12:08:22;;;;;;;6.32;1.52;;;;;;;;;;5070361;28;20419;-58
2023/07/13 12:10:47;;;;;;;5.03;1.37;;;;;;;;;;5064468;28;20020;-59
2023/07/13 12:13:13;;;;;;;5.30;1.70;;;;;;;;;;5070309;28;20029;-59
2023/07/13 12:15:38;;;;;;;;;;;;;;;;;;5073663;28;20094;-64
2023/07/13 12:18:11;;;;;;;4.22;1.40;;;;;;;;;;5074508;28;20252;-59
2023/07/13 12:20:38;;;;;;;4.97;1.23;;;;;;;;;;5070618;28;20098;-60
2023/07/13 12:23:04;;;;;;;6.03;1.70;;;;;;;;;;5066831;28;20016;-61
2023/07/13 12:25:30;;;;;;;4.80;1.50;;;;;;;;;;5068577;28;20020;-60
2023/07/13 12:27:56;;;;;;;5.47;1.48;;;;;;;;;;5064319;28;20031;-57
2023/07/13 12:30:26;;;;;;;4.73;1.30;;;;;;;;;;5070897;28;20016;-59
2023/07/13 12:33:08;;;;;;;4.43;1.20;;;;;;;;;;5069798;28;20012;-58
2023/07/13 12:35:39;;;;;;;5.82;1.25;;;;;;;;;;5066942;28;20070;-59
2023/07/13 12:38:07;;;;;;;4.95;1.40;;;;;;;;;;5069899;28;20021;-59
2023/07/13 12:40:33;;;;;;;6.07;1.40;;;;;;;;;;5069867;28;20055;-60
2023/07/13 12:42:59;;;;;;;5.28;1.40;;;;;;;;;;5067987;28;20024;-59
2023/07/13 12:45:24;;;;;;;;;;;;;;;;;;5081724;28;20097;-58
2023/07/13 12:47:53;;;;;;;4.30;1.40;;;;;;;;;;5069965;28;19995;-58
2023/07/13 12:50:19;;;;;;;5.35;1.65;;;;;;;;;;5073948;28;20028;-58
2023/07/13 12:52:51;;;;;;;5.18;1.27;;;;;;;;;;5070678;28;20037;-59
2023/07/13 12:55:17;;;;;;;4.85;1.30;;;;;;;;;;5066959;28;20021;-59
2023/07/13 12:57:53;;;;;;;5.80;1.20;;;;;;;;;;5056893;28;20052;-59
2023/07/13 13:00:21;;;;;;;4.57;1.27;;;;;;;;;;5061048;28;20021;-59
2023/07/13 13:02:49;;;;;;;4.03;1.20;;;;;;;;;;5067336;28;20024;-59
2023/07/13 13:05:14;;;;;;;4.75;1.20;;;;;;;;;;5057787;28;20024;-59
2023/07/13 13:07:39;;;;;;;;;;;;;;;;;;5057447;28;20081;-60
2023/07/13 13:10:11;;;;;;;7.18;1.63;;;;;;;;;;5066878;28;19959;-61
2023/07/13 13:12:36;;;;;;;4.93;1.20;;;;;;;;;;5066883;28;20028;-59
2023/07/13 13:15:01;;;;;;;;;;;;;;;;;;5068429;28;20016;-59
2023/07/13 13:17:29;;;;;;;4.80;1.30;;;;;;;;;;5069879;28;19940;-58
2023/07/13 13:19:54;;;;;;;4.57;1.20;;;;;;;;;;5067561;28;20044;-59
2023/07/13 13:22:19;;;;;;;;;;;;;;;;;;5067884;28;20102;-59
2023/07/13 13:24:44;;;;;;;11.85;1.67;;;;;;;;;;5067927;28;19995;-58
2023/07/13 13:27:09;;;;;;;;;;;;;;;;;;5070807;28;20018;-59
2023/07/13 13:29:37;;;;;;;4.43;1.30;;;;;;;;;;5050365;28;19909;-59
2023/07/13 13:32:05;;;;;;;4.20;1.27;;;;;;;;;;5060001;28;20020;-59
2023/07/13 13:34:31;;;;;;;4.82;1.30;;;;;;;;;;5059756;28;20025;-60
2023/07/13 13:36:56;;;;;;;;;;;;;;;;;;5073404;28;20083;-58
2023/07/13 13:39:24;;;;;;;3.90;1.30;;;;;;;;;;5076613;28;19908;-59
2023/07/13 13:41:50;;;;;;;4.25;1.33;;;;;;;;;;5076072;28;20039;-59
2023/07/13 13:44:16;;;;;;;5.80;1.40;;;;;;;;;;5080483;28;20020;-58
2023/07/13 13:46:41;;;;;;;4.15;1.20;;;;;;;;;;5073034;28;20059;-59
2023/07/13 13:49:06;;;;;;;;;;;;;;;;;;5072705;28;20020;-61
2023/07/13 13:51:32;;;;;;;3.58;1.10;;;;;;;;;;5070096;28;20440;-60
2023/07/13 13:53:57;;;;;;;;;;;;;;;;;;5072583;28;20028;-60
2023/07/13 13:56:22;;;;;;;3.45;1.20;;;;;;;;;;5072467;28;19951;-60
2023/07/13 13:58:47;;;;;;;;;;;;;;;;;;5063644;28;20064;-61
2023/07/13 14:01:16;;;;;;;3.65;1.13;;;;;;;;;;5072141;28;20380;-58
2023/07/13 14:03:41;;;;;;;4.10;1.15;;;;;;;;;;5072306;28;20020;-59
2023/07/13 14:06:06;;;;;;;;;;;;;;;;;;5055337;28;20036;-59
2023/07/13 14:08:32;;;;;;;6.53;1.25;;;;;;;;;;5054174;28;20287;-58
2023/07/13 14:10:57;;;;;;;;;;;;;;;;;;5059517;28;20056;-61
2023/07/13 14:13:30;;;;;;;5.70;1.77;;;;;;;;;;5059858;28;20295;-59
2023/07/13 14:15:55;;;;;;;6.03;1.20;;;;;;;;;;5059450;28;20024;-59
2023/07/13 14:18:20;;;;;;;;;;;;;;;;;;5062456;28;20436;-58
2023/07/13 14:20:46;;;;;;;6.15;1.33;;;;;;;;;;5062190;28;19916;-59
2023/07/13 14:23:11;;;;;;;;;;;;;;;;;;5061311;28;20039;-59
2023/07/13 14:25:37;;;;;;;3.72;1.20;;;;;;;;;;5055809;28;19962;-61
2023/07/13 14:28:07;;;;;;;;;;;;;;;;;;5060901;28;20024;-61
2023/07/13 14:30:33;;;;;;;3.67;1.10;;;;;;;;;;5063052;28;19909;-61
2023/07/13 14:32:58;;;;;;;;;;;;;;;;;;5074735;28;20073;-60
2023/07/13 14:35:23;;;;;;;3.95;1.25;;;;;;;;;;5060898;28;20452;-59
2023/07/13 14:37:48;;;;;;;;;;;;;;;;;;5073066;28;20577;-60
2023/07/13 14:40:14;;;;;;;4.45;1.33;;;;;;;;;;5064692;28;19915;-58
2023/07/13 14:42:39;;;;;;;4.63;1.13;;;;;;;;;;5068942;28;20356;-58
2023/07/13 14:45:05;;;;;;;;;;;;;;;;;;5062886;28;20375;-60
2023/07/13 14:47:30;;;;;;;4.13;1.30;;;;;;;;;;5068598;28;19915;-60
2023/07/13 14:49:55;;;;;;;;;;;;;;;;;;5058122;28;20459;-58